Time;durP1;ratioP1;P1;durP2;ratioP2;P2;SDS_P1;SDS_P2;PMS_P1;PMS_P2;Temp;Humidity;BMP_temperature;BMP_pressure;BME280_temperature;BME280_humidity;BME280_pressure;Samples;Min_cycle;Max_cycle;Signal;HPM_P1;HPM_P2
2023/10/09 00:02:26;;;;;;;6.60;3.50;;;;;;;;;;5070920;28;20697;-38
2023/10/09 00:04:56;;;;;;;4.97;3.50;;;;;;;;;;5066017;28;20219;-39
2023/10/09 00:07:30;;;;;;;10.27;3.87;;;;;;;;;;5065211;28;20228;-38
2023/10/09 00:09:58;;;;;;;4.97;3.80;;;;;;;;;;5070408;28;20239;-38
2023/10/09 00:12:27;;;;;;;4.97;3.50;;;;;;;;;;5062396;28;20267;-37
2023/10/09 00:14:59;;;;;;;9.23;4.50;;;;;;;;;;5070350;28;20212;-38
2023/10/09 00:17:31;;;;;;;7.30;3.40;;;;;;;;;;5070388;28;20239;-35
2023/10/09 00:20:07;;;;;;;6.80;3.83;;;;;;;;;;5062177;28;20226;-38
2023/10/09 00:22:41;;;;;;;8.50;4.00;;;;;;;;;;5056557;28;20208;-37
2023/10/09 00:25:14;;;;;;;7.07;4.27;;;;;;;;;;5070398;28;20633;-37
2023/10/09 00:27:45;;;;;;;7.10;3.70;;;;;;;;;;5062520;28;20314;-37
2023/10/09 00:30:15;;;;;;;6.63;3.93;;;;;;;;;;5070476;28;20278;-38
2023/10/09 00:32:59;;;;;;;5.73;3.90;;;;;;;;;;5070319;28;20656;-35
2023/10/09 00:35:46;;;;;;;6.90;3.47;;;;;;;;;;5050080;28;20206;-42
2023/10/09 00:38:23;;;;;;;8.50;4.30;;;;;;;;;;5066804;28;20558;-38
2023/10/09 00:40:57;;;;;;;6.60;3.67;;;;;;;;;;5069981;28;20327;-41
2023/10/09 00:43:28;;;;;;;7.13;3.87;;;;;;;;;;5067384;28;20308;-36
2023/10/09 00:45:56;;;;;;;6.80;4.40;;;;;;;;;;5070937;28;20228;-38
2023/10/09 00:48:30;;;;;;;8.40;4.67;;;;;;;;;;5069828;28;20237;-34
2023/10/09 00:50:59;;;;;;;6.97;4.47;;;;;;;;;;5062503;28;20260;-40
2023/10/09 00:53:32;;;;;;;8.17;4.00;;;;;;;;;;5068428;28;20215;-38
2023/10/09 00:56:06;;;;;;;5.00;3.47;;;;;;;;;;5072306;28;20201;-35
2023/10/09 00:58:36;;;;;;;8.60;3.93;;;;;;;;;;5064626;28;20205;-42
2023/10/09 01:01:04;;;;;;;4.23;3.27;;;;;;;;;;5065610;28;20292;-37
2023/10/09 01:03:33;;;;;;;7.03;4.00;;;;;;;;;;5068880;28;20285;-41
2023/10/09 01:06:15;;;;;;;7.10;4.93;;;;;;;;;;5069463;28;20377;-37
2023/10/09 01:08:55;;;;;;;7.50;3.50;;;;;;;;;;5060949;28;20277;-38
2023/10/09 01:11:23;;;;;;;5.43;3.23;;;;;;;;;;5055822;28;20356;-37
2023/10/09 01:14:03;;;;;;;6.47;4.17;;;;;;;;;;5068569;28;20211;-37
2023/10/09 01:16:31;;;;;;;4.50;3.23;;;;;;;;;;5069217;28;20296;-36
2023/10/09 01:18:58;;;;;;;4.83;2.90;;;;;;;;;;5069413;28;20610;-36
2023/10/09 01:21:26;;;;;;;4.97;3.37;;;;;;;;;;5063775;28;20225;-39
2023/10/09 01:24:08;;;;;;;7.27;4.00;;;;;;;;;;5069455;28;20600;-39
2023/10/09 01:26:39;;;;;;;6.60;3.50;;;;;;;;;;5064809;28;20220;-40
2023/10/09 01:29:10;;;;;;;7.10;4.30;;;;;;;;;;5066960;28;20256;-39
2023/10/09 01:31:51;;;;;;;6.63;3.60;;;;;;;;;;5061746;28;20209;-38
2023/10/09 01:34:19;;;;;;;5.57;3.40;;;;;;;;;;5069640;28;20205;-36
2023/10/09 01:36:49;;;;;;;5.43;3.13;;;;;;;;;;5056901;28;20206;-35
2023/10/09 01:39:26;;;;;;;5.30;3.27;;;;;;;;;;5065482;28;20210;-38
2023/10/09 01:41:58;;;;;;;7.90;3.70;;;;;;;;;;5061825;28;20224;-38
2023/10/09 01:44:27;;;;;;;6.20;3.60;;;;;;;;;;5069125;28;20244;-34
2023/10/09 01:47:06;;;;;;;5.53;3.47;;;;;;;;;;5072505;28;20260;-35
2023/10/09 01:49:35;;;;;;;5.13;3.90;;;;;;;;;;5067132;28;20295;-36
2023/10/09 01:52:06;;;;;;;5.83;3.30;;;;;;;;;;5068168;28;20201;-36
2023/10/09 01:54:36;;;;;;;5.67;3.90;;;;;;;;;;5069637;28;20226;-37
2023/10/09 01:57:09;;;;;;;6.10;4.13;;;;;;;;;;5064245;28;20212;-34
2023/10/09 01:59:38;;;;;;;4.97;3.27;;;;;;;;;;5067642;28;20234;-38
2023/10/09 02:02:14;;;;;;;7.97;4.23;;;;;;;;;;5069422;28;20569;-34
2023/10/09 02:04:41;;;;;;;4.77;3.60;;;;;;;;;;5061064;28;20236;-37
2023/10/09 02:07:09;;;;;;;6.17;4.40;;;;;;;;;;5060532;28;20218;-39
2023/10/09 02:09:44;;;;;;;4.47;3.20;;;;;;;;;;5068475;28;20237;-42
2023/10/09 02:12:13;;;;;;;6.30;3.90;;;;;;;;;;5059939;28;20206;-41
2023/10/09 02:14:41;;;;;;;5.10;3.20;;;;;;;;;;5061504;28;20263;-38
2023/10/09 02:17:17;;;;;;;4.90;3.20;;;;;;;;;;5069739;28;20205;-34
2023/10/09 02:19:48;;;;;;;7.40;3.57;;;;;;;;;;5066988;28;20272;-41
2023/10/09 02:22:15;;;;;;;5.77;3.80;;;;;;;;;;5060445;28;20730;-36
2023/10/09 02:24:51;;;;;;;4.50;3.23;;;;;;;;;;5069988;28;20232;-35
2023/10/09 02:27:43;;;;;;;5.70;4.20;;;;;;;;;;5067154;28;20211;-40
2023/10/09 02:30:19;;;;;;;4.57;3.43;;;;;;;;;;5069390;28;20243;-34
2023/10/09 02:32:53;;;;;;;5.93;3.37;;;;;;;;;;5070474;28;20212;-40
2023/10/09 02:35:28;;;;;;;6.30;3.53;;;;;;;;;;5069956;28;20209;-35
2023/10/09 02:37:55;;;;;;;5.83;3.60;;;;;;;;;;5060240;28;20262;-40
2023/10/09 02:40:26;;;;;;;6.10;3.40;;;;;;;;;;5068535;28;20249;-40
2023/10/09 02:42:53;;;;;;;6.47;3.50;;;;;;;;;;5060239;28;20233;-37
2023/10/09 02:45:29;;;;;;;4.93;3.40;;;;;;;;;;5066945;28;20296;-35
2023/10/09 02:47:56;;;;;;;5.30;3.10;;;;;;;;;;5068572;28;20266;-34
2023/10/09 02:50:28;;;;;;;6.03;3.63;;;;;;;;;;5064206;28;20318;-33
2023/10/09 02:53:08;;;;;;;6.27;3.47;;;;;;;;;;5065953;28;20232;-37
2023/10/09 02:55:38;;;;;;;7.37;3.50;;;;;;;;;;5069370;28;20262;-42
2023/10/09 02:58:06;;;;;;;6.13;3.43;;;;;;;;;;5059381;28;20237;-35
2023/10/09 03:00:36;;;;;;;4.17;2.80;;;;;;;;;;5070311;28;20232;-34
2023/10/09 03:03:06;;;;;;;9.03;3.67;;;;;;;;;;5069857;28;20292;-38
2023/10/09 03:05:33;;;;;;;6.40;3.47;;;;;;;;;;5063153;28;20205;-37
2023/10/09 03:08:02;;;;;;;4.70;3.43;;;;;;;;;;5057677;28;20232;-39
2023/10/09 03:10:29;;;;;;;6.33;3.30;;;;;;;;;;5065281;28;20235;-32
2023/10/09 03:13:03;;;;;;;4.97;3.33;;;;;;;;;;5054570;28;20201;-37
2023/10/09 03:15:35;;;;;;;5.53;3.60;;;;;;;;;;5063785;28;20263;-39
2023/10/09 03:18:04;;;;;;;6.30;4.03;;;;;;;;;;5064175;28;20203;-42
2023/10/09 03:20:31;;;;;;;6.73;3.53;;;;;;;;;;5062015;28;20225;-35
2023/10/09 03:23:01;;;;;;;5.30;2.80;;;;;;;;;;5064671;28;20207;-39
2023/10/09 03:25:28;;;;;;;5.07;3.47;;;;;;;;;;5064036;28;20306;-39
2023/10/09 03:27:58;;;;;;;4.67;2.97;;;;;;;;;;5057708;28;20229;-42
2023/10/09 03:30:27;;;;;;;4.60;2.93;;;;;;;;;;5065042;28;20322;-38
2023/10/09 03:32:54;;;;;;;7.63;3.70;;;;;;;;;;5064970;28;20209;-35
2023/10/09 03:35:25;;;;;;;8.73;3.37;;;;;;;;;;5066070;28;20206;-38
2023/10/09 03:38:00;;;;;;;7.33;3.57;;;;;;;;;;5063927;28;20200;-41
2023/10/09 03:40:28;;;;;;;4.87;3.30;;;;;;;;;;5062295;28;20255;-41
2023/10/09 03:42:55;;;;;;;7.20;3.77;;;;;;;;;;5059440;28;20205;-42
2023/10/09 03:45:26;;;;;;;4.20;2.93;;;;;;;;;;5070364;28;20566;-35
2023/10/09 03:48:02;;;;;;;4.97;3.50;;;;;;;;;;5070141;28;20243;-37
2023/10/09 03:50:35;;;;;;;4.67;3.23;;;;;;;;;;5064073;28;20217;-39
2023/10/09 03:53:02;;;;;;;6.47;3.70;;;;;;;;;;5068894;28;20217;-37
2023/10/09 03:55:30;;;;;;;7.30;3.57;;;;;;;;;;5070231;28;20213;-39
2023/10/09 03:57:58;;;;;;;6.07;3.10;;;;;;;;;;5059809;28;20509;-36
2023/10/09 04:00:28;;;;;;;5.57;3.40;;;;;;;;;;5068728;28;20311;-39
2023/10/09 04:02:57;;;;;;;5.17;3.33;;;;;;;;;;5070467;28;20713;-35
2023/10/09 04:05:25;;;;;;;5.60;3.20;;;;;;;;;;5062204;28;20204;-40
2023/10/09 04:07:53;;;;;;;6.13;3.90;;;;;;;;;;5068201;28;20222;-35
2023/10/09 04:13:10;;;;;;;5.83;3.70;;;;;;;;;;5066305;28;20239;-39
2023/10/09 04:15:37;;;;;;;6.23;3.40;;;;;;;;;;5068698;28;20634;-37
2023/10/09 04:18:14;;;;;;;6.63;4.23;;;;;;;;;;5072214;28;20208;-35
2023/10/09 04:23:35;;;;;;;6.03;3.47;;;;;;;;;;5070231;28;20236;-35
2023/10/09 04:26:10;;;;;;;5.17;3.53;;;;;;;;;;5068739;28;20282;-43
2023/10/09 04:28:37;;;;;;;5.43;3.70;;;;;;;;;;5063775;28;20236;-34
2023/10/09 04:31:06;;;;;;;5.80;3.40;;;;;;;;;;5070370;28;20217;-34
2023/10/09 04:33:42;;;;;;;5.80;3.70;;;;;;;;;;5070281;28;20213;-39
2023/10/09 04:36:16;;;;;;;6.27;3.57;;;;;;;;;;5063200;28;20197;-39
2023/10/09 04:38:55;;;;;;;7.20;3.17;;;;;;;;;;5062653;28;20448;-42
2023/10/09 04:41:32;;;;;;;6.03;3.67;;;;;;;;;;5061374;28;20221;-34
2023/10/09 04:44:18;;;;;;;5.30;3.27;;;;;;;;;;5064459;28;20258;-44
2023/10/09 04:47:17;;;;;;;4.87;3.23;;;;;;;;;;5069489;28;20262;-34
2023/10/09 04:49:49;;;;;;;8.57;3.80;;;;;;;;;;5068866;28;20758;-41
2023/10/09 04:52:30;;;;;;;4.73;3.50;;;;;;;;;;5063491;28;20216;-39
2023/10/09 04:55:16;;;;;;;5.93;3.70;;;;;;;;;;5065020;28;20247;-36
2023/10/09 04:58:00;;;;;;;6.40;2.90;;;;;;;;;;5060672;28;20210;-40
2023/10/09 05:00:46;;;;;;;5.00;3.23;;;;;;;;;;5066394;28;20321;-39
2023/10/09 05:03:27;;;;;;;6.23;3.53;;;;;;;;;;5066871;28;20248;-36
2023/10/09 05:06:20;;;;;;;4.87;3.47;;;;;;;;;;5060616;28;20264;-34
2023/10/09 05:08:48;;;;;;;4.73;3.23;;;;;;;;;;5061806;28;20856;-33
2023/10/09 05:11:15;;;;;;;6.33;3.73;;;;;;;;;;5062795;28;20328;-36
2023/10/09 05:13:43;;;;;;;5.67;3.27;;;;;;;;;;5064993;28;20259;-40
2023/10/09 05:16:18;;;;;;;4.83;3.33;;;;;;;;;;5069078;28;20237;-35
2023/10/09 05:18:55;;;;;;;7.37;3.70;;;;;;;;;;5068963;28;20197;-39
2023/10/09 05:21:36;;;;;;;6.67;3.00;;;;;;;;;;5054519;28;20218;-38
2023/10/09 05:24:19;;;;;;;3.90;2.87;;;;;;;;;;5062991;28;20213;-40
2023/10/09 05:26:51;;;;;;;5.07;3.47;;;;;;;;;;5064501;28;20207;-39
2023/10/09 05:29:34;;;;;;;7.07;3.70;;;;;;;;;;5069137;28;20233;-38
2023/10/09 05:32:05;;;;;;;7.43;3.33;;;;;;;;;;5059990;28;20256;-39
2023/10/09 05:34:36;;;;;;;4.87;3.10;;;;;;;;;;5069003;28;20210;-37
2023/10/09 05:37:17;;;;;;;7.40;4.10;;;;;;;;;;5065318;28;20199;-33
2023/10/09 05:40:21;;;;;;;5.47;3.23;;;;;;;;;;5064398;28;20300;-35
2023/10/09 05:42:42;;;;;;;8.47;3.97;;;;;;;;;;5053831;28;20206;-37
2023/10/09 05:47:56;;;;;;;6.10;4.07;;;;;;;;;;5060297;28;20236;-41
2023/10/09 05:50:34;;;;;;;5.90;3.50;;;;;;;;;;5064786;28;20217;-40
2023/10/09 05:53:09;;;;;;;6.50;3.53;;;;;;;;;;5061429;28;20209;-37
2023/10/09 06:03:53;;;;;;;4.90;3.40;;;;;;;;;;5043299;28;20251;-40
2023/10/09 06:06:33;;;;;;;6.03;3.33;;;;;;;;;;5062712;28;20530;-33
2023/10/09 06:12:33;;;;;;;4.20;2.73;;;;;;;;;;5056969;28;20680;-35
2023/10/09 06:14:57;;;;;;;7.00;3.90;;;;;;;;;;5062458;28;20216;-35
2023/10/09 06:17:27;;;;;;;6.93;3.50;;;;;;;;;;5063467;28;20285;-34
2023/10/09 06:19:58;;;;;;;4.57;3.17;;;;;;;;;;5065287;28;20224;-34
2023/10/09 06:25:17;;;;;;;5.67;3.03;;;;;;;;;;5064343;28;20200;-32
2023/10/09 06:28:01;;;;;;;4.37;3.30;;;;;;;;;;5053599;28;20306;-38
2023/10/09 06:30:33;;;;;;;7.80;4.00;;;;;;;;;;5068604;28;20298;-37
2023/10/09 06:33:19;;;;;;;6.40;3.40;;;;;;;;;;5061160;28;20213;-38
2023/10/09 06:35:53;;;;;;;4.07;3.03;;;;;;;;;;5061806;28;20486;-36
2023/10/09 06:38:23;;;;;;;5.90;3.63;;;;;;;;;;5062058;28;20206;-35
2023/10/09 06:43:42;;;;;;;3.90;2.70;;;;;;;;;;5059433;28;20546;-35
2023/10/09 06:49:28;;;;;;;9.50;3.80;;;;;;;;;;5060369;28;20231;-37
2023/10/09 06:51:47;;;;;;;6.63;4.00;;;;;;;;;;5066617;28;20575;-37
2023/10/09 06:54:15;;;;;;;8.53;4.07;;;;;;;;;;5071791;28;20292;-37
2023/10/09 07:00:47;;;;;;;9.00;4.00;;;;;;;;;;5041564;28;20222;-38
2023/10/09 07:02:31;;;;;;;6.87;3.77;;;;;;;;;;5062813;28;20202;-37
2023/10/09 07:05:10;;;;;;;6.50;4.43;;;;;;;;;;5065259;28;20225;-37
2023/10/09 07:07:47;;;;;;;8.77;4.50;;;;;;;;;;5057095;28;20708;-36
2023/10/09 07:10:39;;;;;;;7.67;4.20;;;;;;;;;;5066517;28;20275;-37
2023/10/09 07:13:07;;;;;;;5.60;3.67;;;;;;;;;;5060763;28;20739;-36
2023/10/09 07:18:45;;;;;;;10.93;3.30;;;;;;;;;;5071271;28;20195;-39
2023/10/09 07:21:27;;;;;;;5.27;3.87;;;;;;;;;;5068365;28;20229;-40
2023/10/09 07:23:57;;;;;;;5.37;3.57;;;;;;;;;;5064123;28;20822;-38
2023/10/09 07:26:36;;;;;;;8.53;3.87;;;;;;;;;;5068014;28;20750;-37
2023/10/09 07:29:20;;;;;;;8.50;4.07;;;;;;;;;;5063924;28;20217;-36
2023/10/09 07:31:57;;;;;;;7.27;3.93;;;;;;;;;;5070825;28;20216;-36
2023/10/09 07:34:52;;;;;;;7.23;4.00;;;;;;;;;;5071930;28;20293;-35
2023/10/09 07:37:20;;;;;;;9.30;4.53;;;;;;;;;;5062746;28;20193;-39
2023/10/09 07:39:57;;;;;;;8.40;4.67;;;;;;;;;;5071221;28;20237;-38
2023/10/09 07:42:33;;;;;;;7.17;3.90;;;;;;;;;;5062555;28;20745;-36
2023/10/09 07:45:12;;;;;;;6.93;4.20;;;;;;;;;;5068980;28;20193;-37
2023/10/09 07:48:02;;;;;;;8.53;4.03;;;;;;;;;;5068944;28;20209;-35
2023/10/09 07:50:38;;;;;;;7.70;3.80;;;;;;;;;;5065359;28;20226;-40
2023/10/09 07:53:17;;;;;;;9.17;4.57;;;;;;;;;;5068922;28;20225;-38
2023/10/09 07:55:54;;;;;;;8.53;4.07;;;;;;;;;;5070853;28;20201;-36
2023/10/09 07:58:24;;;;;;;10.43;4.30;;;;;;;;;;5066815;28;20321;-34
2023/10/09 08:01:15;;;;;;;10.40;4.40;;;;;;;;;;5070686;28;20229;-37
2023/10/09 08:03:45;;;;;;;6.43;3.77;;;;;;;;;;5071224;28;20232;-37
2023/10/09 08:17:13;;;;;;;9.93;4.33;;;;;;;;;;5069382;28;20280;-41
2023/10/09 08:19:53;;;;;;;11.97;4.33;;;;;;;;;;5069953;28;20319;-40
2023/10/09 08:25:08;;;;;;;7.40;3.97;;;;;;;;;;5070088;28;20819;-39
2023/10/09 08:27:53;;;;;;;8.27;4.70;;;;;;;;;;5058991;28;20205;-38
2023/10/09 08:30:29;;;;;;;8.23;4.23;;;;;;;;;;5068814;28;20549;-36
2023/10/09 08:33:02;;;;;;;15.90;4.90;;;;;;;;;;5070600;28;20204;-35
2023/10/09 08:35:33;;;;;;;8.23;4.27;;;;;;;;;;5064826;28;20198;-36
2023/10/09 08:38:07;;;;;;;13.43;4.70;;;;;;;;;;5062870;28;20205;-38
2023/10/09 08:40:38;;;;;;;12.93;5.17;;;;;;;;;;5070742;28;20225;-41
2023/10/09 08:43:09;;;;;;;11.30;4.83;;;;;;;;;;5059533;28;20210;-42
2023/10/09 08:45:39;;;;;;;11.87;4.13;;;;;;;;;;5070596;28;20250;-37
2023/10/09 08:48:08;;;;;;;9.63;4.17;;;;;;;;;;5069145;28;20267;-40
2023/10/09 08:50:37;;;;;;;13.83;4.93;;;;;;;;;;5056384;28;20264;-37
2023/10/09 08:53:04;;;;;;;10.03;4.33;;;;;;;;;;5062770;28;20219;-39
2023/10/09 08:55:31;;;;;;;9.43;4.77;;;;;;;;;;5070451;28;20201;-35
2023/10/09 08:57:59;;;;;;;15.10;5.23;;;;;;;;;;5061555;28;20710;-40
2023/10/09 09:00:33;;;;;;;9.80;4.27;;;;;;;;;;5065430;28;20253;-40
2023/10/09 09:03:01;;;;;;;7.97;3.97;;;;;;;;;;5062867;28;20201;-36
2023/10/09 09:05:49;;;;;;;11.23;4.67;;;;;;;;;;5067186;28;20208;-41
2023/10/09 09:08:28;;;;;;;12.53;4.60;;;;;;;;;;5062775;28;20594;-40
2023/10/09 09:11:05;;;;;;;8.60;3.50;;;;;;;;;;5070206;28;20232;-37
2023/10/09 09:13:34;;;;;;;10.40;4.00;;;;;;;;;;5060187;28;20228;-36
2023/10/09 09:16:02;;;;;;;11.77;4.70;;;;;;;;;;5069172;28;20216;-41
2023/10/09 09:18:36;;;;;;;7.93;4.13;;;;;;;;;;5070672;28;20207;-41
2023/10/09 09:21:22;;;;;;;6.73;4.50;;;;;;;;;;5065468;28;20236;-36
2023/10/09 09:23:59;;;;;;;10.60;4.73;;;;;;;;;;5070224;28;20232;-38
2023/10/09 09:26:37;;;;;;;8.90;3.63;;;;;;;;;;5069371;28;20275;-36
2023/10/09 09:29:06;;;;;;;9.40;4.40;;;;;;;;;;5064918;28;20221;-41
2023/10/09 09:31:37;;;;;;;9.77;4.63;;;;;;;;;;5070946;28;20225;-40
2023/10/09 09:34:12;;;;;;;10.67;4.30;;;;;;;;;;5070407;28;20209;-39
2023/10/09 09:36:53;;;;;;;7.23;3.70;;;;;;;;;;5060463;28;20232;-35
2023/10/09 09:39:26;;;;;;;13.83;4.43;;;;;;;;;;5058988;28;20209;-40
2023/10/09 09:41:53;;;;;;;17.17;4.57;;;;;;;;;;5054006;28;20222;-38
2023/10/09 09:44:25;;;;;;;12.73;4.33;;;;;;;;;;5059520;28;20209;-40
2023/10/09 09:46:53;;;;;;;12.80;4.23;;;;;;;;;;5069215;28;20656;-39
2023/10/09 09:49:21;;;;;;;15.43;4.77;;;;;;;;;;5067063;28;20221;-35
2023/10/09 09:51:50;;;;;;;13.50;5.03;;;;;;;;;;5057732;28;20215;-38
2023/10/09 09:54:19;;;;;;;10.77;4.87;;;;;;;;;;5064887;28;20197;-37
2023/10/09 09:56:50;;;;;;;8.00;4.40;;;;;;;;;;5063083;28;20216;-41
2023/10/09 09:59:22;;;;;;;10.13;3.73;;;;;;;;;;5061449;28;20197;-39
2023/10/09 10:01:56;;;;;;;10.30;4.33;;;;;;;;;;5068938;28;20213;-41
2023/10/09 10:04:29;;;;;;;11.53;3.80;;;;;;;;;;5063179;28;20334;-33
2023/10/09 10:07:00;;;;;;;9.90;3.20;;;;;;;;;;5061257;28;20236;-40
2023/10/09 10:09:38;;;;;;;12.87;4.23;;;;;;;;;;5068589;28;20320;-33
2023/10/09 10:12:09;;;;;;;8.03;4.40;;;;;;;;;;5060009;28;20288;-35
2023/10/09 10:14:52;;;;;;;11.10;3.93;;;;;;;;;;5061083;28;20241;-39
2023/10/09 10:17:20;;;;;;;9.53;3.40;;;;;;;;;;5061919;28;20215;-35
2023/10/09 10:20:26;;;;;;;13.37;4.43;;;;;;;;;;5065726;28;20226;-38
2023/10/09 10:23:17;;;;;;;5.63;2.97;;;;;;;;;;5035486;28;20903;-36
2023/10/09 10:25:59;;;;;;;8.93;2.87;;;;;;;;;;5068745;28;20299;-39
2023/10/09 10:28:38;;;;;;;12.57;3.80;;;;;;;;;;5063290;28;20205;-37
2023/10/09 10:31:07;;;;;;;11.03;3.27;;;;;;;;;;5061862;28;20224;-37
2023/10/09 10:33:53;;;;;;;13.00;3.37;;;;;;;;;;5063899;28;20229;-36
2023/10/09 10:36:22;;;;;;;10.70;3.13;;;;;;;;;;5060449;28;20250;-38
2023/10/09 10:39:04;;;;;;;8.67;2.83;;;;;;;;;;5065686;28;20232;-39
2023/10/09 10:41:37;;;;;;;8.80;3.23;;;;;;;;;;5056776;28;20312;-39
2023/10/09 10:44:33;;;;;;;12.67;3.73;;;;;;;;;;5066473;28;20235;-38
2023/10/09 10:47:00;;;;;;;9.57;3.20;;;;;;;;;;5072321;28;20205;-36
2023/10/09 10:49:36;;;;;;;11.77;3.10;;;;;;;;;;5071725;28;20221;-33
2023/10/09 10:52:15;;;;;;;14.67;3.43;;;;;;;;;;5064599;28;20240;-37
2023/10/09 10:55:05;;;;;;;12.43;3.73;;;;;;;;;;5072916;28;20220;-40
2023/10/09 10:57:53;;;;;;;10.97;3.53;;;;;;;;;;5057830;28;20677;-39
2023/10/09 11:03:16;;;;;;;9.67;3.30;;;;;;;;;;5070892;28;20250;-37
2023/10/09 11:05:50;;;;;;;11.40;3.40;;;;;;;;;;5063560;28;20204;-41
2023/10/09 11:08:22;;;;;;;11.57;3.03;;;;;;;;;;5058504;28;20197;-39
2023/10/09 11:10:53;;;;;;;8.33;3.53;;;;;;;;;;5065884;28;20253;-36
2023/10/09 11:13:35;;;;;;;16.90;3.83;;;;;;;;;;5057217;28;20229;-40
2023/10/09 11:16:24;;;;;;;12.60;3.73;;;;;;;;;;5062463;28;20582;-36
2023/10/09 11:18:51;;;;;;;14.07;3.13;;;;;;;;;;5065190;28;20201;-38
2023/10/09 11:21:31;;;;;;;14.80;3.70;;;;;;;;;;5063086;28;20232;-37
2023/10/09 11:23:58;;;;;;;9.73;3.40;;;;;;;;;;5067620;28;20205;-40
2023/10/09 11:26:29;;;;;;;14.00;4.13;;;;;;;;;;5065646;28;20208;-33
2023/10/09 11:29:16;;;;;;;15.43;3.67;;;;;;;;;;5061710;28;20529;-34
2023/10/09 11:31:45;;;;;;;18.70;3.77;;;;;;;;;;5071456;28;20193;-35
2023/10/09 11:34:31;;;;;;;11.77;3.27;;;;;;;;;;5071084;28;20205;-39
2023/10/09 11:37:02;;;;;;;11.50;3.97;;;;;;;;;;5063917;28;20577;-39
2023/10/09 11:39:34;;;;;;;11.90;4.27;;;;;;;;;;5070792;28;20591;-38
2023/10/09 11:42:10;;;;;;;12.17;3.73;;;;;;;;;;5060333;28;20205;-39
2023/10/09 11:44:39;;;;;;;17.90;3.70;;;;;;;;;;5061329;28;20338;-34
2023/10/09 11:47:22;;;;;;;12.97;3.17;;;;;;;;;;5072948;28;20201;-36
2023/10/09 11:49:56;;;;;;;19.40;4.10;;;;;;;;;;5072838;28;20237;-38
2023/10/09 11:52:38;;;;;;;15.27;3.77;;;;;;;;;;5062247;28;20198;-41
2023/10/09 11:55:06;;;;;;;12.43;3.40;;;;;;;;;;5065391;28;20279;-35
2023/10/09 11:57:35;;;;;;;14.93;3.37;;;;;;;;;;5067082;28;20205;-38
2023/10/09 12:00:10;;;;;;;10.17;3.17;;;;;;;;;;5068501;28;20229;-38
2023/10/09 12:02:43;;;;;;;13.37;3.70;;;;;;;;;;5075249;28;20224;-36
2023/10/09 12:05:16;;;;;;;14.40;3.80;;;;;;;;;;5074483;28;20245;-34
2023/10/09 12:07:44;;;;;;;14.57;4.47;;;;;;;;;;5069822;28;20205;-39
2023/10/09 12:10:13;;;;;;;6.97;3.03;;;;;;;;;;5072798;28;20229;-40
2023/10/09 12:12:46;;;;;;;12.93;4.27;;;;;;;;;;5062770;28;20224;-38
2023/10/09 12:15:17;;;;;;;12.27;3.87;;;;;;;;;;5072280;28;20217;-39
2023/10/09 12:17:46;;;;;;;14.60;3.50;;;;;;;;;;5071654;28;20646;-35
2023/10/09 12:20:30;;;;;;;15.47;3.90;;;;;;;;;;5067810;28;20224;-37
2023/10/09 12:23:04;;;;;;;16.17;3.77;;;;;;;;;;5067502;28;20334;-41
2023/10/09 12:25:31;;;;;;;12.53;3.33;;;;;;;;;;5071802;28;20211;-41
2023/10/09 12:28:01;;;;;;;13.03;3.60;;;;;;;;;;5064462;28;20312;-36
2023/10/09 12:30:29;;;;;;;13.67;3.33;;;;;;;;;;5065930;28;20237;-35
2023/10/09 12:32:57;;;;;;;14.77;3.60;;;;;;;;;;5069117;28;20215;-39
2023/10/09 12:35:24;;;;;;;8.80;3.20;;;;;;;;;;5071493;28;20208;-36
2023/10/09 12:37:52;;;;;;;12.83;3.53;;;;;;;;;;5065890;28;20300;-35
2023/10/09 12:40:24;;;;;;;13.67;4.00;;;;;;;;;;5065952;28;20233;-40
2023/10/09 12:42:52;;;;;;;12.27;4.17;;;;;;;;;;5060265;28;20240;-35
2023/10/09 12:45:25;;;;;;;16.50;4.00;;;;;;;;;;5063871;28;20300;-34
2023/10/09 12:47:53;;;;;;;14.03;5.03;;;;;;;;;;5070143;28;20213;-39
2023/10/09 12:50:33;;;;;;;11.73;4.23;;;;;;;;;;5063910;28;20235;-40
2023/10/09 12:53:06;;;;;;;9.70;3.50;;;;;;;;;;5066797;28;20205;-42
2023/10/09 12:55:40;;;;;;;14.93;3.40;;;;;;;;;;5070920;28;20259;-32
2023/10/09 12:58:07;;;;;;;19.60;4.20;;;;;;;;;;5063456;28;20217;-35
2023/10/09 13:00:39;;;;;;;22.70;4.20;;;;;;;;;;5070418;28;20339;-37
2023/10/09 13:03:16;;;;;;;16.53;4.13;;;;;;;;;;5069539;28;20204;-37
2023/10/09 13:05:51;;;;;;;14.07;3.27;;;;;;;;;;5059938;28;20255;-38
2023/10/09 13:08:21;;;;;;;14.37;3.90;;;;;;;;;;5068446;28;20565;-37
2023/10/09 13:10:54;;;;;;;21.57;3.73;;;;;;;;;;5069569;28;20244;-35
2023/10/09 13:13:22;;;;;;;14.60;3.53;;;;;;;;;;5063050;28;20228;-36
2023/10/09 13:15:51;;;;;;;12.70;3.40;;;;;;;;;;5065647;28;20205;-37
2023/10/09 13:18:19;;;;;;;11.73;3.70;;;;;;;;;;5068735;28;20284;-40
2023/10/09 13:20:47;;;;;;;21.33;4.27;;;;;;;;;;5057906;28;20286;-41
2023/10/09 13:23:16;;;;;;;14.20;4.03;;;;;;;;;;5067510;28;20284;-35
2023/10/09 13:25:44;;;;;;;23.03;4.50;;;;;;;;;;5070235;28;20509;-41
2023/10/09 13:28:11;;;;;;;11.03;3.77;;;;;;;;;;5055639;28;20574;-35
2023/10/09 13:30:48;;;;;;;10.33;4.30;;;;;;;;;;5062333;28;20225;-38
2023/10/09 13:33:21;;;;;;;16.10;4.20;;;;;;;;;;5067050;28;20211;-39
2023/10/09 13:35:50;;;;;;;20.63;4.27;;;;;;;;;;5064085;28;20208;-41
2023/10/09 13:38:17;;;;;;;12.07;3.43;;;;;;;;;;5053328;28;20214;-39
2023/10/09 13:40:45;;;;;;;16.40;3.77;;;;;;;;;;5068851;28;20233;-39
2023/10/09 13:43:16;;;;;;;16.17;3.80;;;;;;;;;;5061124;28;20205;-35
2023/10/09 13:45:49;;;;;;;10.87;4.03;;;;;;;;;;5063489;28;20258;-37
2023/10/09 13:48:20;;;;;;;15.57;3.97;;;;;;;;;;5057654;28;20198;-38
2023/10/09 13:51:02;;;;;;;16.10;3.90;;;;;;;;;;5067425;28;20258;-33
2023/10/09 13:53:29;;;;;;;17.10;4.47;;;;;;;;;;5062459;28;20201;-39
2023/10/09 13:55:56;;;;;;;14.17;3.57;;;;;;;;;;5070199;28;20239;-35
2023/10/09 13:58:24;;;;;;;13.03;4.20;;;;;;;;;;5050755;28;20209;-38
2023/10/09 14:00:53;;;;;;;17.67;4.43;;;;;;;;;;5064820;28;20324;-40
2023/10/09 14:03:23;;;;;;;11.73;3.30;;;;;;;;;;5068625;28;20202;-35
2023/10/09 14:05:54;;;;;;;15.17;3.83;;;;;;;;;;5062869;28;20533;-39
2023/10/09 14:08:26;;;;;;;24.40;4.83;;;;;;;;;;5065870;28;20205;-40
2023/10/09 14:10:59;;;;;;;21.30;3.77;;;;;;;;;;5071359;28;20229;-39
2023/10/09 14:13:28;;;;;;;15.67;4.40;;;;;;;;;;5066898;28;20212;-35
2023/10/09 14:15:55;;;;;;;19.03;3.77;;;;;;;;;;5068556;28;20201;-38
2023/10/09 14:18:24;;;;;;;17.20;3.93;;;;;;;;;;5068062;28;20209;-38
2023/10/09 14:20:56;;;;;;;19.13;3.57;;;;;;;;;;5061663;28;20253;-35
2023/10/09 14:23:24;;;;;;;13.00;3.90;;;;;;;;;;5068316;28;20231;-41
2023/10/09 14:25:56;;;;;;;21.93;4.30;;;;;;;;;;5069007;28;20213;-40
2023/10/09 14:28:31;;;;;;;13.63;3.80;;;;;;;;;;5060737;28;20209;-36
2023/10/09 14:31:00;;;;;;;14.83;3.77;;;;;;;;;;5061932;28;20231;-40
2023/10/09 14:33:36;;;;;;;15.50;3.47;;;;;;;;;;5063312;28;20753;-37
2023/10/09 14:36:05;;;;;;;17.83;3.33;;;;;;;;;;5065047;28;20224;-39
2023/10/09 14:38:38;;;;;;;11.73;4.30;;;;;;;;;;5066381;28;20209;-38
2023/10/09 14:41:11;;;;;;;18.23;3.63;;;;;;;;;;5055585;28;20237;-35
2023/10/09 14:43:39;;;;;;;12.07;3.37;;;;;;;;;;5061697;28;20228;-40
2023/10/09 14:46:10;;;;;;;18.83;3.80;;;;;;;;;;5067978;28;20264;-38
2023/10/09 14:48:41;;;;;;;15.07;3.73;;;;;;;;;;5067386;28;20201;-39
2023/10/09 14:51:10;;;;;;;14.80;4.20;;;;;;;;;;5059267;28;20723;-39
2023/10/09 14:53:37;;;;;;;12.33;3.77;;;;;;;;;;5059020;28;20225;-32
2023/10/09 14:56:08;;;;;;;16.57;3.60;;;;;;;;;;5063399;28;20219;-37
2023/10/09 14:58:36;;;;;;;17.70;4.73;;;;;;;;;;5066674;28;20197;-38
2023/10/09 15:01:18;;;;;;;11.40;3.60;;;;;;;;;;5067779;28;20233;-39
2023/10/09 15:03:47;;;;;;;17.60;3.97;;;;;;;;;;5064407;28;20209;-42
2023/10/09 15:06:14;;;;;;;12.60;4.07;;;;;;;;;;5059027;28;20214;-34
2023/10/09 15:08:42;;;;;;;13.63;3.50;;;;;;;;;;5064141;28;20583;-38
2023/10/09 15:11:09;;;;;;;13.17;3.47;;;;;;;;;;5059190;28;20528;-38
2023/10/09 15:13:39;;;;;;;11.57;3.73;;;;;;;;;;5064087;28;20201;-41
2023/10/09 15:16:06;;;;;;;22.63;3.90;;;;;;;;;;5067769;28;20205;-41
2023/10/09 15:18:34;;;;;;;11.00;4.07;;;;;;;;;;5067984;28;20197;-39
2023/10/09 15:21:02;;;;;;;18.40;4.00;;;;;;;;;;5057511;28;20745;-38
2023/10/09 15:23:29;;;;;;;14.60;3.80;;;;;;;;;;5059317;28;20245;-40
2023/10/09 15:25:56;;;;;;;16.17;4.20;;;;;;;;;;5067172;28;20220;-36
2023/10/09 15:28:24;;;;;;;10.83;3.30;;;;;;;;;;5060724;28;20213;-40
2023/10/09 15:30:51;;;;;;;17.13;4.30;;;;;;;;;;5065872;28;20218;-38
2023/10/09 15:33:20;;;;;;;19.53;4.37;;;;;;;;;;5069055;28;20339;-37
2023/10/09 15:35:49;;;;;;;14.07;5.80;;;;;;;;;;5068456;28;20205;-40
2023/10/09 15:38:19;;;;;;;17.47;4.63;;;;;;;;;;5069414;28;20213;-39
2023/10/09 15:40:47;;;;;;;12.47;3.90;;;;;;;;;;5070325;28;20264;-39
2023/10/09 15:43:16;;;;;;;14.80;4.03;;;;;;;;;;5061449;28;20230;-35
2023/10/09 15:45:44;;;;;;;10.63;3.80;;;;;;;;;;5069037;28;20271;-38
2023/10/09 15:48:15;;;;;;;11.00;3.57;;;;;;;;;;5065828;28;20427;-42
2023/10/09 15:50:48;;;;;;;10.30;3.47;;;;;;;;;;5060348;28;20503;-38
2023/10/09 15:53:17;;;;;;;13.60;4.87;;;;;;;;;;5068007;28;20198;-40
2023/10/09 15:55:46;;;;;;;10.80;4.67;;;;;;;;;;5061372;28;20247;-36
2023/10/09 15:58:15;;;;;;;13.47;3.87;;;;;;;;;;5061288;28;20213;-42
2023/10/09 16:00:45;;;;;;;12.43;4.33;;;;;;;;;;5065944;28;20433;-36
2023/10/09 16:03:13;;;;;;;10.97;3.53;;;;;;;;;;5069622;28;20209;-36
2023/10/09 16:05:41;;;;;;;7.80;3.57;;;;;;;;;;5061573;28;20743;-38